Greenville, MI

6:39 AM EDT on May 22, 2015 (GMT -0400)
5 miles west of greenville | | Change Station
CLOSE
Current Station
Personal Weather Station
Location: Greenville, MI
Elevation: 866 ft
Nearby Weather Stations

Elev 866 ft 43.17 °N, 85.35 °W | Updated 8 seconds ago

Mostly Cloudy
Mostly Cloudy
37.6 °F
Feels Like 38 °F
N
0.0
Wind Variable Wind from WSW
Gusts 0.0 mph

Today
High -- | Low -- °F
--% Chance of Precip.
Yesterday
High -- | Low -- °F
Precip. -- in
6:10 AM 9:05 PM
Waxing Crescent, 20% visible
Pressure 30.12 in
Visibility 10.0 miles
Clouds Clear
Windchill 38 °F
Dew Point 31 °F
Humidity 78%
Rainfall 0.00 in
Snow Depth Not available.
UV 0.0 out of 12
Pollen 10.10 out of 12
Air Quality Not available.
Flu Activity Local Activity
METAR KY70 221034Z AUTO 00000KT 10SM CLR 08/M04 A3012 RMK AO2 T00821041

More Conditions Fewer Conditions

Pressure 30.12 in
Visibility 10.0 miles
Clouds Clear
Windchill 38 °F
Dew Point 31 °F
Humidity 78%
Rainfall 0.00 in
Snow Depth Not available.
UV 0.0 out of 12
Pollen 10.10 out of 12
Air Quality Not available.
Flu Activity Local Activity
METAR KY70 221034Z AUTO 00000KT 10SM CLR 08/M04 A3012 RMK AO2 T00821041

More Conditions Fewer Conditions

10-Day Weather Forecast

Almanac

Astronomy

May. 22, 2015 Rise Set
Actual Time
Civil Twilight
Nautical Twilight
Astronomical Twilight
Moon
Length of Visible Light
Length of Day
Tomorrow will be .
, % of the Moon is Illuminated

Today's Extremes

State Highs State Lows

Community

WunderPhotos

Upload Photos

1,823,200 photos uploaded!

WunderBlogs® & News

Nearby

Air Quality

  Air Quality AQ Index Pollutant
Not available.

Snow Depth

Station Depth Elevation

Earthquake Activity

City Distance Mag. Time & Date
Minimum magnitude displayed is 2.5.

Coastal Water Temperatures

Place Temperature

Stations

Nearby Weather Stations

Station Location Temp. Windchill Dew Point Humidity Wind Precip. Elev Updated Type